createdAt,value
2023-01-31T00:00:04.514Z,937.68
2023-01-31T00:05:03.513Z,937.70
2023-01-31T00:10:04.611Z,937.66
2023-01-31T00:15:03.406Z,937.64
2023-01-31T00:20:04.823Z,937.66
2023-01-31T00:25:03.393Z,937.74
2023-01-31T00:30:04.494Z,937.74
2023-01-31T00:35:03.451Z,937.68
2023-01-31T00:40:04.549Z,937.72
2023-01-31T00:45:03.340Z,937.74
2023-01-31T00:50:04.659Z,937.74
2023-01-31T00:55:03.350Z,937.74
2023-01-31T01:00:04.690Z,937.86
2023-01-31T01:05:03.458Z,938.00
2023-01-31T01:10:04.302Z,938.10
2023-01-31T01:15:03.275Z,938.15
2023-01-31T01:20:04.439Z,938.29
2023-01-31T01:25:04.526Z,938.45
2023-01-31T01:30:04.742Z,938.56
2023-01-31T01:35:03.454Z,938.74
2023-01-31T01:40:04.537Z,938.84
2023-01-31T01:45:03.352Z,939.00
2023-01-31T01:50:06.614Z,939.13
2023-01-31T01:55:03.362Z,939.27
2023-01-31T02:00:04.509Z,939.41
2023-01-31T02:05:04.313Z,939.51
2023-01-31T02:10:05.678Z,939.62
2023-01-31T02:15:03.454Z,939.74
2023-01-31T02:20:04.380Z,939.86
2023-01-31T02:25:03.555Z,939.92
2023-01-31T02:30:04.479Z,939.96
2023-01-31T02:35:03.467Z,939.98
2023-01-31T02:40:04.587Z,939.94
2023-01-31T02:45:03.390Z,939.96
2023-01-31T02:50:04.599Z,939.92
2023-01-31T02:55:03.357Z,939.86
2023-01-31T03:00:04.509Z,939.78
2023-01-31T03:05:03.438Z,939.66
2023-01-31T03:10:04.266Z,939.60
2023-01-31T03:15:03.356Z,939.51
2023-01-31T03:20:04.395Z,939.43
2023-01-31T03:25:03.366Z,939.41
2023-01-31T03:30:04.524Z,939.37
2023-01-31T03:35:03.365Z,939.29
2023-01-31T03:40:04.592Z,939.21
2023-01-31T03:45:03.261Z,939.11
2023-01-31T03:50:04.387Z,939.07
2023-01-31T03:55:03.347Z,938.98
2023-01-31T04:00:04.467Z,938.94
2023-01-31T04:05:03.395Z,938.86
2023-01-31T04:10:05.149Z,938.76
2023-01-31T04:15:03.240Z,938.70
2023-01-31T04:20:04.355Z,938.62
2023-01-31T04:25:03.324Z,938.58
2023-01-31T04:30:04.602Z,938.49
2023-01-31T04:35:04.539Z,938.31
2023-01-31T04:40:04.309Z,938.23
2023-01-31T04:45:03.299Z,938.21
2023-01-31T04:50:04.414Z,938.15
2023-01-31T04:55:03.309Z,938.15
2023-01-31T05:00:04.479Z,938.08
2023-01-31T05:05:03.442Z,938.08
2023-01-31T05:10:04.480Z,938.10
2023-01-31T05:15:03.482Z,938.08
2023-01-31T05:20:04.325Z,938.11
2023-01-31T05:25:03.726Z,938.06
2023-01-31T05:30:04.578Z,938.04
2023-01-31T05:35:03.707Z,937.98
2023-01-31T05:40:04.565Z,937.88
2023-01-31T05:45:03.386Z,937.88
2023-01-31T05:50:04.406Z,937.80
2023-01-31T05:55:03.322Z,937.76
2023-01-31T06:00:04.428Z,937.78
2023-01-31T06:05:03.428Z,937.72
2023-01-31T06:10:04.272Z,937.68
2023-01-31T06:15:03.263Z,937.60
2023-01-31T06:20:04.355Z,937.55
2023-01-31T06:25:03.377Z,937.43
2023-01-31T06:30:04.411Z,937.31
2023-01-31T06:35:03.371Z,937.21
2023-01-31T06:40:04.501Z,937.17
2023-01-31T06:45:03.444Z,937.07
2023-01-31T06:50:04.325Z,936.96
2023-01-31T06:55:03.330Z,936.84
2023-01-31T07:00:04.447Z,936.78
2023-01-31T07:05:03.429Z,936.78
2023-01-31T07:10:04.509Z,936.74
2023-01-31T07:15:03.221Z,936.70
2023-01-31T07:20:05.477Z,936.62
2023-01-31T07:25:03.330Z,936.56
2023-01-31T07:30:04.667Z,936.60
2023-01-31T07:35:03.365Z,936.56
2023-01-31T07:40:04.253Z,936.54
2023-01-31T07:45:20.796Z,936.62
2023-01-31T07:50:04.387Z,936.74
2023-01-31T07:55:04.380Z,936.84
2023-01-31T08:00:04.459Z,936.92
2023-01-31T08:05:03.410Z,936.94
2023-01-31T08:10:04.533Z,936.94
2023-01-31T08:15:03.260Z,936.88
2023-01-31T08:20:04.340Z,936.94
2023-01-31T08:25:03.417Z,937.02
2023-01-31T08:30:04.489Z,937.13
2023-01-31T08:35:03.374Z,937.15
2023-01-31T08:40:04.292Z,937.19
2023-01-31T08:45:03.218Z,937.25
2023-01-31T08:50:04.333Z,937.37
2023-01-31T08:55:03.321Z,937.45
2023-01-31T09:00:04.392Z,937.57
2023-01-31T09:05:03.365Z,937.60
2023-01-31T09:10:04.258Z,937.60
2023-01-31T09:15:03.217Z,937.70
2023-01-31T09:20:04.326Z,937.80
2023-01-31T09:25:03.441Z,937.88
2023-01-31T09:30:04.498Z,938.00
2023-01-31T09:35:03.406Z,938.13
2023-01-31T09:40:04.559Z,938.23
2023-01-31T09:45:03.234Z,938.29
2023-01-31T09:50:04.319Z,938.33
2023-01-31T09:55:03.279Z,938.45
2023-01-31T10:00:04.322Z,938.54
2023-01-31T10:05:03.435Z,938.58
2023-01-31T10:10:04.460Z,938.64
2023-01-31T10:15:03.454Z,938.64
2023-01-31T10:20:04.392Z,938.68
2023-01-31T10:25:03.377Z,938.72
2023-01-31T10:30:04.438Z,938.80
2023-01-31T10:35:03.422Z,938.86
2023-01-31T10:40:04.472Z,938.92
2023-01-31T10:45:03.431Z,938.94
2023-01-31T10:50:04.373Z,938.94
2023-01-31T10:55:03.351Z,938.94
2023-01-31T11:00:04.411Z,938.98
2023-01-31T11:05:03.399Z,939.06
2023-01-31T11:10:04.427Z,939.17
2023-01-31T11:15:03.404Z,939.23
2023-01-31T11:20:04.354Z,939.31
2023-01-31T11:25:03.274Z,939.39
2023-01-31T11:30:04.623Z,939.43
2023-01-31T11:35:03.523Z,939.43
2023-01-31T11:40:04.279Z,939.41
2023-01-31T11:45:03.249Z,939.41
2023-01-31T11:50:04.088Z,939.41
2023-01-31T11:55:03.292Z,939.49
2023-01-31T12:00:04.208Z,939.54
2023-01-31T12:05:03.406Z,939.60
2023-01-31T12:10:04.253Z,939.60
2023-01-31T12:15:03.463Z,939.66
2023-01-31T12:20:14.384Z,939.68
2023-01-31T12:25:03.336Z,939.70
2023-01-31T12:30:04.400Z,939.72
2023-01-31T12:35:07.068Z,939.74
2023-01-31T12:40:09.164Z,939.76
2023-01-31T12:45:03.287Z,939.78
2023-01-31T12:50:04.518Z,939.78
2023-01-31T12:55:03.344Z,939.84
2023-01-31T13:00:04.421Z,939.84
2023-01-31T13:05:04.280Z,939.84
2023-01-31T13:10:04.550Z,939.90
2023-01-31T13:15:03.246Z,939.90
2023-01-31T13:20:04.367Z,939.90
2023-01-31T13:25:03.344Z,939.94
2023-01-31T13:30:04.411Z,939.94
2023-01-31T13:35:03.374Z,939.94
2023-01-31T13:40:04.496Z,939.94
2023-01-31T13:45:04.401Z,939.90
2023-01-31T13:50:04.334Z,939.88
2023-01-31T13:55:03.304Z,939.92
2023-01-31T14:00:04.467Z,939.90
2023-01-31T14:05:03.360Z,939.92
2023-01-31T14:10:04.249Z,939.90
2023-01-31T14:15:03.418Z,939.84
2023-01-31T14:20:04.338Z,939.84
2023-01-31T14:25:03.314Z,939.82
2023-01-31T14:30:05.517Z,939.76
2023-01-31T14:35:03.331Z,939.74
2023-01-31T14:40:04.487Z,939.72
2023-01-31T14:45:03.470Z,939.72
2023-01-31T14:50:04.354Z,939.76
2023-01-31T14:55:03.326Z,939.74
2023-01-31T15:00:04.427Z,939.70
2023-01-31T15:05:03.468Z,939.68
2023-01-31T15:10:04.538Z,939.66
2023-01-31T15:15:03.479Z,939.66
2023-01-31T15:20:04.753Z,939.68
2023-01-31T15:25:03.317Z,939.64
2023-01-31T15:30:04.291Z,939.60
2023-01-31T15:35:03.478Z,939.62
2023-01-31T15:40:04.487Z,939.56
2023-01-31T15:45:03.261Z,939.51
2023-01-31T15:50:04.614Z,939.49
2023-01-31T15:55:03.342Z,939.58
2023-01-31T16:00:04.385Z,939.62
2023-01-31T16:05:03.323Z,939.58
2023-01-31T16:10:04.511Z,939.51
2023-01-31T16:15:03.225Z,939.41
2023-01-31T16:20:05.468Z,939.39
2023-01-31T16:25:03.302Z,939.31
2023-01-31T16:30:05.419Z,939.33
2023-01-31T16:35:03.378Z,939.35
2023-01-31T16:40:04.471Z,939.41
2023-01-31T16:45:03.426Z,939.37
2023-01-31T16:50:04.558Z,939.33
2023-01-31T16:55:03.454Z,939.29
2023-01-31T17:00:04.402Z,939.23
2023-01-31T17:05:03.413Z,939.21
2023-01-31T17:10:04.462Z,939.21
2023-01-31T17:15:04.148Z,939.17
2023-01-31T17:20:04.425Z,939.15
2023-01-31T17:25:03.391Z,939.13
2023-01-31T17:30:04.747Z,939.09
2023-01-31T17:35:03.325Z,939.11
2023-01-31T17:40:04.506Z,939.15
2023-01-31T17:45:03.486Z,939.15
2023-01-31T17:50:04.520Z,939.11
2023-01-31T17:55:03.304Z,939.07
2023-01-31T18:00:04.586Z,939.02
2023-01-31T18:05:03.401Z,938.94
2023-01-31T18:10:04.533Z,938.86
2023-01-31T18:15:03.255Z,938.80
2023-01-31T18:20:04.307Z,938.66
2023-01-31T18:25:03.248Z,938.58
2023-01-31T18:30:04.649Z,938.51
2023-01-31T18:35:03.434Z,938.35
2023-01-31T18:40:04.508Z,938.21
2023-01-31T18:45:03.580Z,938.11
2023-01-31T18:50:04.502Z,938.04
2023-01-31T18:55:03.299Z,937.92
2023-01-31T19:00:04.556Z,937.82
2023-01-31T19:05:03.370Z,937.70
2023-01-31T19:10:05.570Z,937.53
2023-01-31T19:15:03.604Z,937.39
2023-01-31T19:20:04.659Z,937.27
2023-01-31T19:25:03.277Z,937.19
2023-01-31T19:30:04.617Z,937.13
2023-01-31T19:35:03.573Z,937.13
2023-01-31T19:40:04.436Z,937.11
2023-01-31T19:45:03.423Z,937.09
2023-01-31T19:50:04.377Z,937.15
2023-01-31T19:55:04.261Z,937.23
2023-01-31T20:00:04.398Z,937.27
2023-01-31T20:05:03.479Z,937.35
2023-01-31T20:10:04.489Z,937.37
2023-01-31T20:15:03.560Z,937.45
2023-01-31T20:20:11.615Z,937.53
2023-01-31T20:25:03.302Z,937.59
2023-01-31T20:30:05.138Z,937.62
2023-01-31T20:35:04.435Z,937.68
2023-01-31T20:40:04.485Z,937.72
2023-01-31T20:45:03.479Z,937.76
2023-01-31T20:50:04.612Z,937.82
2023-01-31T20:55:03.255Z,937.80
2023-01-31T21:00:04.616Z,937.74
2023-01-31T21:05:03.411Z,937.80
2023-01-31T21:10:04.507Z,937.94
2023-01-31T21:15:03.244Z,938.04
2023-01-31T21:20:04.595Z,938.10
2023-01-31T21:25:03.290Z,938.13
2023-01-31T21:30:04.410Z,938.19
2023-01-31T21:35:03.612Z,938.23
2023-01-31T21:40:04.601Z,938.31
2023-01-31T21:45:03.527Z,938.45
2023-01-31T21:50:04.494Z,938.51
2023-01-31T21:55:03.369Z,938.54
2023-01-31T22:00:04.663Z,938.54
2023-01-31T22:05:03.356Z,938.52
2023-01-31T22:10:04.529Z,938.54
2023-01-31T22:15:03.208Z,938.62
2023-01-31T22:20:04.354Z,938.70
2023-01-31T22:25:03.306Z,938.76
2023-01-31T22:30:15.635Z,938.80
2023-01-31T22:35:03.347Z,938.74
2023-01-31T22:40:04.537Z,938.72
2023-01-31T22:45:03.340Z,938.74
2023-01-31T22:50:04.394Z,938.82
2023-01-31T22:55:03.313Z,938.90
2023-01-31T23:00:04.613Z,938.96
2023-01-31T23:05:03.378Z,939.04
2023-01-31T23:10:07.824Z,939.02
2023-01-31T23:15:03.266Z,939.04
2023-01-31T23:20:04.336Z,939.13
2023-01-31T23:25:03.525Z,939.13
2023-01-31T23:30:04.396Z,939.13
2023-01-31T23:35:03.360Z,939.19
2023-01-31T23:40:04.522Z,939.25
2023-01-31T23:45:03.427Z,939.29
2023-01-31T23:50:04.307Z,939.29
2023-01-31T23:55:03.525Z,939.37
